Time;durP1;ratioP1;P1;durP2;ratioP2;P2;SDS_P1;SDS_P2;PMS_P1;PMS_P2;Temp;Humidity;BMP_temperature;BMP_pressure;BME280_temperature;BME280_humidity;BME280_pressure;Samples;Min_cycle;Max_cycle;Signal;HPM_P1;HPM_P2
2023/05/18 00:01:58;;;;;;;9.82;3.08;;;8.10;99.90;;;;;;5050195;28;20786;-76
2023/05/18 00:04:24;;;;;;;11.65;3.20;;;8.10;99.90;;;;;;5045426;28;21092;-77
2023/05/18 00:06:55;;;;;;;9.93;4.00;;;7.80;99.90;;;;;;5047867;28;20418;-77
2023/05/18 00:09:25;;;;;;;14.50;3.75;;;7.90;99.90;;;;;;5048100;28;20425;-76
2023/05/18 00:11:52;;;;;;;8.35;2.50;;;7.50;99.90;;;;;;5047887;28;20412;-77
2023/05/18 00:14:18;;;;;;;12.07;3.10;;;7.60;99.90;;;;;;5047111;28;20429;-79
2023/05/18 00:16:44;;;;;;;11.82;3.60;;;7.70;99.90;;;;;;5029401;28;20418;-78
2023/05/18 00:19:09;;;;;;;7.07;2.30;;;8.00;99.90;;;;;;5061896;28;20441;-78
2023/05/18 00:21:35;;;;;;;10.07;2.63;;;7.50;99.90;;;;;;5045411;28;20416;-78
2023/05/18 00:24:01;;;;;;;9.30;4.07;;;7.70;99.90;;;;;;5028486;28;20503;-79
2023/05/18 00:26:26;;;;;;;7.07;2.63;;;7.60;99.90;;;;;;5060971;28;20504;-77
2023/05/18 00:28:52;;;;;;;9.20;2.63;;;7.70;99.90;;;;;;5045850;28;20479;-75
2023/05/18 00:31:18;;;;;;;8.82;3.70;;;7.70;99.90;;;;;;5045659;28;20560;-78
2023/05/18 00:33:44;;;;;;;11.82;3.78;;;7.60;99.90;;;;;;5028169;28;20447;-78
2023/05/18 00:36:10;;;;;;;10.05;2.90;;;7.70;99.90;;;;;;5048229;28;20475;-78
2023/05/18 00:38:36;;;;;;;11.07;3.40;;;7.80;99.90;;;;;;5044548;28;20834;-78
2023/05/18 00:41:01;;;;;;;8.52;3.17;;;7.80;99.90;;;;;;5047040;28;20425;-76
2023/05/18 00:43:27;;;;;;;9.50;3.03;;;7.60;99.90;;;;;;5046390;28;20498;-78
2023/05/18 00:45:53;;;;;;;10.68;3.25;;;7.70;99.90;;;;;;5046305;28;20527;-78
2023/05/18 00:48:18;;;;;;;11.82;3.30;;;7.80;99.90;;;;;;5045470;28;20428;-76
2023/05/18 00:50:45;;;;;;;8.70;3.10;;;7.60;99.90;;;;;;5047350;28;20978;-78
2023/05/18 00:53:10;;;;;;;7.55;2.70;;;7.50;99.90;;;;;;5027110;28;20441;-77
2023/05/18 00:55:36;;;;;;;9.80;3.08;;;7.60;99.90;;;;;;5047008;28;20872;-78
2023/05/18 00:58:04;;;;;;;8.85;2.92;;;7.70;99.90;;;;;;5027055;28;20426;-78
2023/05/18 01:00:30;;;;;;;8.95;2.80;;;7.70;99.90;;;;;;5060269;28;20433;-77
2023/05/18 01:02:56;;;;;;;7.65;2.45;;;7.50;99.90;;;;;;5027218;28;20425;-77
2023/05/18 01:05:22;;;;;;;9.57;2.63;;;7.40;99.90;;;;;;5005889;28;20456;-79
2023/05/18 01:07:49;;;;;;;11.33;3.77;;;7.60;99.90;;;;;;5074637;22;21603;-77
2023/05/18 01:10:17;;;;;;;7.90;2.95;;;7.60;99.90;;;;;;5005756;28;20559;-78
2023/05/18 01:12:49;;;;;;;11.85;2.78;;;7.70;99.90;;;;;;4987276;28;20440;-77
2023/05/18 01:15:18;;;;;;;6.40;2.30;;;7.60;99.90;;;;;;5005668;28;20425;-77
2023/05/18 01:18:09;;;;;;;8.23;2.88;;;7.60;99.90;;;;;;5003731;28;21013;-77
2023/05/18 01:21:18;;;;;;;7.90;3.42;;;7.60;99.90;;;;;;4985228;28;20466;-78
2023/05/18 01:24:24;;;;;;;7.18;2.58;;;7.70;99.90;;;;;;5000150;28;20425;-77
2023/05/18 01:26:56;;;;;;;7.68;2.70;;;7.70;99.90;;;;;;4987597;28;20509;-79
2023/05/18 01:29:23;;;;;;;8.68;2.75;;;7.60;99.90;;;;;;5000823;28;20409;-78
2023/05/18 01:31:49;;;;;;;11.07;3.60;;;7.40;99.90;;;;;;5005272;28;20432;-80
2023/05/18 01:34:15;;;;;;;7.45;3.10;;;7.60;99.90;;;;;;5004975;28;20446;-79
2023/05/18 01:36:41;;;;;;;12.77;3.25;;;7.60;99.90;;;;;;5005195;28;20973;-77
2023/05/18 01:39:08;;;;;;;8.18;2.90;;;7.70;99.90;;;;;;4986265;28;20500;-79
2023/05/18 01:41:54;;;;;;;7.38;3.10;;;7.80;99.90;;;;;;5005441;28;20432;-77
2023/05/18 01:44:32;;;;;;;12.98;3.30;;;7.80;99.90;;;;;;4992834;28;20479;-77
2023/05/18 01:47:00;;;;;;;10.30;2.80;;;7.70;99.90;;;;;;5006272;28;20499;-79
2023/05/18 01:49:40;;;;;;;7.65;3.08;;;7.80;99.90;;;;;;5003959;28;20420;-79
2023/05/18 01:52:36;;;;;;;6.95;3.22;;;7.80;99.90;;;;;;5004721;28;20455;-80
2023/05/18 01:55:03;;;;;;;13.65;3.88;;;7.80;99.90;;;;;;4977077;28;20432;-79
2023/05/18 01:57:31;;;;;;;8.00;3.57;;;7.80;99.90;;;;;;4984293;28;20442;-78
2023/05/18 01:59:58;;;;;;;6.97;3.15;;;7.70;99.90;;;;;;4988481;28;20440;-77
2023/05/18 02:02:27;;;;;;;7.15;2.88;;;7.50;99.90;;;;;;5005792;28;20436;-78
2023/05/18 02:04:53;;;;;;;9.45;3.35;;;7.50;99.90;;;;;;5005261;28;20483;-79
2023/05/18 02:07:19;;;;;;;7.70;3.97;;;7.50;99.90;;;;;;5005500;28;20826;-78
2023/05/18 02:09:45;;;;;;;10.57;4.07;;;7.60;99.90;;;;;;5002844;28;20427;-77
2023/05/18 02:12:11;;;;;;;8.40;3.60;;;7.60;99.90;;;;;;4980717;28;20939;-76
2023/05/18 02:14:36;;;;;;;8.77;3.57;;;7.60;99.90;;;;;;5005205;28;20934;-78
2023/05/18 02:17:02;;;;;;;10.10;4.40;;;7.80;99.90;;;;;;5006722;28;20462;-80
2023/05/18 02:19:31;;;;;;;6.97;3.72;;;7.70;99.90;;;;;;5006197;28;21071;-77
2023/05/18 02:21:57;;;;;;;8.80;3.88;;;7.60;99.90;;;;;;4988067;28;20432;-78
2023/05/18 02:24:23;;;;;;;9.57;3.72;;;7.50;99.90;;;;;;5004644;28;20432;-75
2023/05/18 02:26:52;;;;;;;12.40;4.07;;;7.50;99.90;;;;;;5006279;28;20432;-79
2023/05/18 02:29:17;;;;;;;8.00;3.88;;;7.50;99.90;;;;;;4998676;28;20922;-78
2023/05/18 02:31:43;;;;;;;7.85;3.42;;;7.50;99.90;;;;;;4987118;28;20440;-78
2023/05/18 02:34:09;;;;;;;9.57;4.13;;;7.50;99.90;;;;;;5005179;28;20814;-78
2023/05/18 02:36:41;;;;;;;8.52;3.30;;;7.60;99.90;;;;;;4997543;28;20844;-77
2023/05/18 02:39:08;;;;;;;7.63;4.20;;;7.60;99.90;;;;;;5004003;28;20428;-77
2023/05/18 02:41:34;;;;;;;10.70;4.18;;;7.70;99.90;;;;;;5005433;28;20490;-76
2023/05/18 02:44:01;;;;;;;11.63;3.83;;;7.70;99.90;;;;;;5006962;28;20945;-78
2023/05/18 02:46:27;;;;;;;9.63;4.23;;;7.50;99.90;;;;;;5000080;28;20527;-78
2023/05/18 02:48:53;;;;;;;10.88;3.90;;;7.70;99.90;;;;;;5009039;28;20429;-78
2023/05/18 02:51:20;;;;;;;10.73;3.80;;;7.70;99.90;;;;;;5008156;28;20434;-76
2023/05/18 02:53:46;;;;;;;9.23;4.40;;;7.70;99.90;;;;;;5009729;28;20421;-76
2023/05/18 02:56:12;;;;;;;7.60;3.85;;;7.70;99.90;;;;;;5008525;28;20926;-76
2023/05/18 02:58:38;;;;;;;7.32;3.63;;;7.70;99.90;;;;;;5002196;28;20420;-80
2023/05/18 03:01:06;;;;;;;8.77;3.65;;;7.70;99.90;;;;;;5008856;28;20424;-79
2023/05/18 03:03:35;;;;;;;10.27;4.15;;;7.80;99.90;;;;;;5008028;28;21118;-76
2023/05/18 03:06:01;;;;;;;12.02;4.72;;;7.80;99.90;;;;;;5007229;28;20456;-78
2023/05/18 03:08:27;;;;;;;9.30;3.57;;;8.40;99.90;;;;;;5006201;28;21090;-77
2023/05/18 03:10:54;;;;;;;8.70;4.07;;;7.80;99.90;;;;;;4990046;28;20491;-80
2023/05/18 03:13:19;;;;;;;7.43;3.40;;;7.90;99.90;;;;;;5008898;28;20918;-77
2023/05/18 03:15:45;;;;;;;9.80;3.88;;;7.90;99.90;;;;;;5008138;28;20436;-76
2023/05/18 03:18:11;;;;;;;7.50;2.95;;;7.90;99.90;;;;;;5008708;28;20425;-77
2023/05/18 03:20:37;;;;;;;7.57;3.38;;;8.00;99.90;;;;;;5008171;28;20950;-77
2023/05/18 03:23:03;;;;;;;8.98;4.22;;;7.90;99.90;;;;;;5007959;28;20425;-77
2023/05/18 03:25:31;;;;;;;9.33;3.80;;;7.80;99.90;;;;;;5011728;28;20497;-78
2023/05/18 03:27:58;;;;;;;9.07;3.88;;;7.80;99.90;;;;;;5003913;28;20443;-77
2023/05/18 03:30:23;;;;;;;9.40;4.05;;;7.90;99.90;;;;;;5022883;28;22427;-77
2023/05/18 03:32:49;;;;;;;7.67;3.90;;;7.90;99.90;;;;;;5008611;28;20494;-77
2023/05/18 03:35:15;;;;;;;7.13;3.90;;;7.80;99.90;;;;;;4990828;28;20437;-77
2023/05/18 03:37:41;;;;;;;10.33;4.57;;;7.70;99.90;;;;;;5009568;28;20495;-75
2023/05/18 03:40:15;;;;;;;10.45;4.00;;;7.70;99.90;;;;;;5007158;28;20489;-76
2023/05/18 03:42:41;;;;;;;9.65;4.45;;;7.80;99.90;;;;;;5005578;28;20413;-76
2023/05/18 03:45:09;;;;;;;9.48;3.65;;;7.80;99.90;;;;;;4990225;28;20432;-76
2023/05/18 03:47:35;;;;;;;9.38;3.85;;;7.80;99.90;;;;;;5006638;28;20433;-79
2023/05/18 03:50:02;;;;;;;6.97;3.72;;;7.90;99.90;;;;;;5006028;28;20919;-77
2023/05/18 03:52:28;;;;;;;8.52;4.30;;;7.80;99.90;;;;;;4987545;28;20423;-74
2023/05/18 03:54:55;;;;;;;9.60;3.97;;;7.80;99.90;;;;;;5006913;28;20437;-77
2023/05/18 03:57:21;;;;;;;9.40;3.88;;;7.70;99.90;;;;;;5006118;28;20417;-76
2023/05/18 03:59:46;;;;;;;8.60;3.40;;;8.00;99.90;;;;;;5008056;28;20931;-77
2023/05/18 04:02:12;;;;;;;9.20;3.63;;;7.80;99.90;;;;;;5007695;28;20826;-75
2023/05/18 04:04:44;;;;;;;10.20;3.83;;;7.80;99.90;;;;;;5007159;28;20436;-78
2023/05/18 04:07:11;;;;;;;9.90;3.10;;;7.80;99.90;;;;;;5008648;28;20775;-78
2023/05/18 04:09:38;;;;;;;9.38;3.83;;;7.80;99.90;;;;;;5005460;28;20432;-78
2023/05/18 04:12:04;;;;;;;9.85;2.92;;;7.90;99.90;;;;;;5006443;28;20918;-77
2023/05/18 04:14:31;;;;;;;9.10;3.70;;;7.90;99.90;;;;;;5005274;28;20433;-77
2023/05/18 04:17:03;;;;;;;9.55;3.55;;;8.20;99.90;;;;;;5006982;28;20555;-77
2023/05/18 04:19:31;;;;;;;7.03;3.78;;;7.90;99.90;;;;;;5007521;28;20437;-78
2023/05/18 04:21:57;;;;;;;6.35;3.38;;;7.90;99.90;;;;;;5006720;28;20534;-78
2023/05/18 04:24:23;;;;;;;7.05;4.22;;;8.00;99.90;;;;;;5008388;28;20472;-78
2023/05/18 04:26:49;;;;;;;9.48;4.18;;;8.00;99.90;;;;;;4988388;28;20432;-78
2023/05/18 04:29:16;;;;;;;7.45;3.53;;;8.10;99.90;;;;;;5007403;28;20531;-79
2023/05/18 04:31:45;;;;;;;9.65;3.42;;;8.10;99.90;;;;;;5004845;28;20482;-78
2023/05/18 04:34:12;;;;;;;13.25;4.30;;;8.40;99.90;;;;;;5007901;28;20431;-78
2023/05/18 04:36:39;;;;;;;10.10;3.95;;;8.20;99.90;;;;;;5007231;28;20429;-76
2023/05/18 04:39:06;;;;;;;8.65;3.42;;;8.10;99.90;;;;;;5007626;28;20907;-78
2023/05/18 04:41:33;;;;;;;9.75;4.47;;;8.20;99.90;;;;;;5006036;28;20440;-78
2023/05/18 04:43:59;;;;;;;8.25;3.90;;;8.00;99.90;;;;;;5005824;28;20448;-74
2023/05/18 04:46:25;;;;;;;14.63;4.22;;;8.10;99.90;;;;;;4985792;28;20437;-77
2023/05/18 04:48:51;;;;;;;9.20;3.30;;;8.20;99.90;;;;;;5003078;28;20946;-77
2023/05/18 04:51:20;;;;;;;12.25;3.83;;;8.30;99.90;;;;;;5008254;28;20428;-78
2023/05/18 04:53:48;;;;;;;11.45;3.33;;;8.30;99.90;;;;;;5006856;28;22926;-77
2023/05/18 04:56:15;;;;;;;12.40;3.28;;;8.40;99.90;;;;;;5007447;28;20424;-78
2023/05/18 04:58:44;;;;;;;12.35;3.30;;;8.40;99.90;;;;;;5005407;28;20813;-77
2023/05/18 05:01:11;;;;;;;7.95;3.03;;;8.40;99.90;;;;;;5003537;28;20440;-77
2023/05/18 05:03:37;;;;;;;8.98;3.60;;;8.30;99.90;;;;;;5005667;28;20428;-77
2023/05/18 05:06:03;;;;;;;9.97;3.77;;;8.40;99.90;;;;;;5006914;28;20433;-77
2023/05/18 05:08:28;;;;;;;9.93;3.47;;;8.20;99.90;;;;;;5004252;28;20523;-77
2023/05/18 05:10:54;;;;;;;8.90;3.23;;;8.30;99.90;;;;;;5004789;28;20508;-77
2023/05/18 05:13:20;;;;;;;13.63;3.67;;;8.40;99.90;;;;;;5005353;28;20483;-76
2023/05/18 05:15:46;;;;;;;9.32;3.08;;;8.60;99.90;;;;;;4988037;28;20452;-78
2023/05/18 05:18:11;;;;;;;10.17;2.67;;;8.70;99.90;;;;;;5007205;28;20487;-77
2023/05/18 05:20:37;;;;;;;9.50;3.08;;;8.70;99.90;;;;;;5007106;28;20451;-76
2023/05/18 05:23:03;;;;;;;9.90;2.70;;;8.80;99.90;;;;;;5006113;28;20485;-78
2023/05/18 05:25:28;;;;;;;9.73;3.33;;;8.80;99.90;;;;;;5005536;28;20455;-78
2023/05/18 05:27:54;;;;;;;11.30;3.10;;;8.80;99.90;;;;;;5005216;28;20508;-79
2023/05/18 05:30:20;;;;;;;9.10;3.37;;;8.80;99.90;;;;;;5004585;28;20432;-77
2023/05/18 05:32:45;;;;;;;10.50;2.97;;;9.00;99.90;;;;;;5006189;28;20428;-77
2023/05/18 05:35:11;;;;;;;14.63;3.57;;;9.00;99.90;;;;;;5006879;28;20440;-78
2023/05/18 05:37:37;;;;;;;8.50;3.20;;;9.20;99.90;;;;;;5006320;28;20490;-78
2023/05/18 05:40:05;;;;;;;9.07;3.50;;;9.10;99.90;;;;;;5006374;28;20482;-80
2023/05/18 05:42:31;;;;;;;8.93;2.40;;;9.10;99.90;;;;;;5005153;28;20452;-77
2023/05/18 05:44:56;;;;;;;11.73;3.20;;;9.40;99.90;;;;;;5007957;28;20420;-79
2023/05/18 05:47:22;;;;;;;7.90;3.13;;;9.50;99.90;;;;;;5004782;28;20475;-80
2023/05/18 05:49:48;;;;;;;11.73;3.03;;;9.60;99.90;;;;;;4999695;28;20451;-78
2023/05/18 05:52:13;;;;;;;10.33;2.37;;;9.30;99.90;;;;;;5007795;28;20485;-77
2023/05/18 05:54:40;;;;;;;6.33;2.10;;;9.60;99.90;;;;;;5005589;28;20429;-78
2023/05/18 05:57:06;;;;;;;6.95;2.22;;;9.40;99.90;;;;;;5005431;28;20425;-79
2023/05/18 05:59:31;;;;;;;12.93;3.33;;;9.50;99.90;;;;;;5006294;28;20428;-77
2023/05/18 06:01:57;;;;;;;8.65;2.53;;;9.50;99.90;;;;;;5000670;28;20432;-78
2023/05/18 06:04:23;;;;;;;5.72;2.40;;;9.50;99.90;;;;;;4996380;28;20445;-78
2023/05/18 06:06:49;;;;;;;8.55;2.50;;;9.60;99.90;;;;;;5005818;28;20503;-76
2023/05/18 06:09:15;;;;;;;7.38;2.28;;;9.60;99.90;;;;;;5005355;28;20441;-76
2023/05/18 06:11:41;;;;;;;7.28;2.47;;;9.60;99.90;;;;;;5000800;28;20426;-78
2023/05/18 06:14:07;;;;;;;8.40;3.13;;;9.60;99.90;;;;;;4980071;28;20459;-78
2023/05/18 06:16:32;;;;;;;7.23;2.40;;;9.60;99.90;;;;;;5004999;28;20454;-77
2023/05/18 06:18:58;;;;;;;5.80;2.13;;;9.70;99.90;;;;;;5007524;28;20428;-78
2023/05/18 06:21:24;;;;;;;8.23;2.23;;;9.70;99.90;;;;;;5000720;28;20515;-78
2023/05/18 06:23:49;;;;;;;7.63;2.28;;;9.70;99.90;;;;;;4992241;28;20462;-78
2023/05/18 06:26:15;;;;;;;7.93;2.90;;;9.90;99.90;;;;;;4992691;28;20435;-77
2023/05/18 06:28:41;;;;;;;9.93;2.88;;;9.90;99.90;;;;;;4992124;28;20513;-78
2023/05/18 06:31:07;;;;;;;11.93;3.50;;;10.10;99.90;;;;;;5008895;28;20440;-75
2023/05/18 06:33:33;;;;;;;9.17;2.33;;;9.80;99.90;;;;;;5008600;28;20457;-78
2023/05/18 06:35:59;;;;;;;9.38;3.25;;;9.90;99.90;;;;;;5015819;28;20435;-78
2023/05/18 06:38:24;;;;;;;7.83;2.47;;;10.00;99.90;;;;;;5017492;28;20435;-77
2023/05/18 06:40:50;;;;;;;13.73;3.15;;;10.00;99.90;;;;;;4992017;28;20440;-78
2023/05/18 06:43:16;;;;;;;9.48;3.20;;;10.40;99.90;;;;;;5011043;28;20420;-74
2023/05/18 06:45:41;;;;;;;7.20;2.17;;;10.60;99.90;;;;;;4989387;28;20429;-79
2023/05/18 06:48:07;;;;;;;6.90;2.47;;;10.60;99.90;;;;;;5008801;28;20432;-78
2023/05/18 06:50:33;;;;;;;9.10;2.50;;;10.60;99.90;;;;;;4992330;28;20434;-77
2023/05/18 06:52:58;;;;;;;10.10;2.97;;;10.60;99.90;;;;;;4994699;28;20429;-79
2023/05/18 06:55:24;;;;;;;6.33;2.83;;;11.00;99.90;;;;;;5005403;28;20428;-76
2023/05/18 06:57:51;;;;;;;10.80;3.80;;;10.90;99.90;;;;;;5010621;28;20462;-78
2023/05/18 07:00:18;;;;;;;9.35;3.35;;;10.90;99.90;;;;;;5008532;28;20440;-79
2023/05/18 07:02:44;;;;;;;10.40;3.03;;;11.00;99.90;;;;;;5001287;28;20440;-76
2023/05/18 07:05:10;;;;;;;10.60;2.80;;;11.00;99.90;;;;;;5004373;28;20419;-76
2023/05/18 07:07:36;;;;;;;7.13;2.47;;;11.10;99.90;;;;;;5006879;28;20436;-75
2023/05/18 07:10:03;;;;;;;9.68;2.88;;;10.80;99.90;;;;;;5008199;28;20492;-77
2023/05/18 07:12:29;;;;;;;7.20;2.67;;;10.80;99.90;;;;;;5008678;28;20439;-77
2023/05/18 07:14:55;;;;;;;6.70;2.28;;;10.80;99.90;;;;;;5008382;28;20420;-79
2023/05/18 07:17:21;;;;;;;8.68;2.63;;;11.00;99.90;;;;;;5008339;28;20923;-79
2023/05/18 07:19:47;;;;;;;9.73;3.30;;;11.60;99.90;;;;;;5007829;28;20514;-78
2023/05/18 07:22:13;;;;;;;9.95;2.90;;;11.90;99.90;;;;;;5006304;28;20436;-78
2023/05/18 07:24:38;;;;;;;8.57;2.20;;;12.40;99.90;;;;;;5006142;28;20485;-80
2023/05/18 07:27:04;;;;;;;7.22;2.58;;;11.90;99.90;;;;;;5008700;28;20405;-77
2023/05/18 07:29:30;;;;;;;8.63;2.80;;;12.40;99.90;;;;;;5007970;28;20420;-77
2023/05/18 07:31:56;;;;;;;8.73;2.75;;;12.60;99.90;;;;;;5007064;28;20483;-80
2023/05/18 07:34:22;;;;;;;8.98;2.03;;;12.50;99.90;;;;;;5008527;28;20432;-80
2023/05/18 07:36:48;;;;;;;9.70;3.00;;;12.10;99.90;;;;;;5009891;28;20830;-77
2023/05/18 07:39:17;;;;;;;7.57;2.20;;;11.60;99.90;;;;;;5009433;28;20460;-78
2023/05/18 07:41:47;;;;;;;9.60;2.65;;;11.60;99.90;;;;;;5008631;28;20428;-78
2023/05/18 07:44:13;;;;;;;6.15;2.35;;;11.80;99.90;;;;;;4995497;28;20413;-77
2023/05/18 07:46:39;;;;;;;6.73;2.60;;;11.70;99.90;;;;;;4992305;28;20481;-78
2023/05/18 07:49:05;;;;;;;9.93;3.30;;;12.10;99.90;;;;;;5009353;28;20449;-79
2023/05/18 07:51:31;;;;;;;6.67;2.30;;;12.10;99.90;;;;;;4990470;28;20432;-79
2023/05/18 07:53:56;;;;;;;7.70;2.20;;;12.10;99.90;;;;;;5005519;28;20425;-81
2023/05/18 07:56:24;;;;;;;10.05;2.53;;;12.20;99.90;;;;;;5008082;28;21009;-78
2023/05/18 07:58:50;;;;;;;7.78;1.73;;;11.80;99.90;;;;;;5008807;28;20416;-77
2023/05/18 08:01:16;;;;;;;6.38;2.05;;;12.00;99.90;;;;;;4996968;28;20928;-77
2023/05/18 08:03:42;;;;;;;7.60;2.53;;;12.10;99.90;;;;;;5010087;28;20421;-77
2023/05/18 08:06:07;;;;;;;7.30;2.72;;;11.80;99.90;;;;;;5019492;28;20438;-79
2023/05/18 08:08:36;;;;;;;6.03;2.20;;;11.80;99.90;;;;;;4991406;28;20413;-78
2023/05/18 08:11:02;;;;;;;6.90;2.85;;;11.60;99.90;;;;;;5008533;28;20513;-78
2023/05/18 08:13:28;;;;;;;8.43;2.80;;;11.80;99.90;;;;;;5008135;28;20425;-76
2023/05/18 08:15:54;;;;;;;7.67;2.00;;;12.00;99.90;;;;;;5006947;28;20440;-77
2023/05/18 08:18:21;;;;;;;9.70;2.30;;;11.50;99.90;;;;;;5007891;28;20451;-77
2023/05/18 08:20:48;;;;;;;7.70;2.22;;;11.60;99.90;;;;;;5007998;28;20447;-77
2023/05/18 08:23:14;;;;;;;9.70;1.92;;;12.00;99.90;;;;;;5008001;28;20432;-77
2023/05/18 08:25:40;;;;;;;8.27;2.75;;;12.30;99.90;;;;;;5007783;28;20429;-78
2023/05/18 08:28:05;;;;;;;5.72;2.00;;;11.80;99.90;;;;;;4990618;28;20431;-77
2023/05/18 08:30:31;;;;;;;10.80;2.42;;;11.80;99.90;;;;;;5004657;28;20587;-78
2023/05/18 08:32:57;;;;;;;6.15;1.88;;;11.70;99.90;;;;;;5006233;28;20417;-77
2023/05/18 08:35:23;;;;;;;7.18;1.90;;;11.60;99.90;;;;;;4989296;28;20420;-77
2023/05/18 08:37:49;;;;;;;7.93;2.72;;;11.70;99.90;;;;;;5009156;28;20400;-77
2023/05/18 08:40:15;;;;;;;6.32;1.73;;;12.20;99.90;;;;;;5007832;28;20443;-78
2023/05/18 08:42:58;;;;;;;5.07;1.83;;;12.40;99.90;;;;;;5007114;28;20555;-74
2023/05/18 08:45:39;;;;;;;6.57;2.15;;;13.00;99.90;;;;;;5006101;28;20443;-76
2023/05/18 08:48:06;;;;;;;5.75;1.50;;;12.80;99.90;;;;;;5008847;28;20925;-77
2023/05/18 08:50:33;;;;;;;7.68;1.98;;;12.60;99.90;;;;;;5007106;28;20552;-76
2023/05/18 08:53:01;;;;;;;9.02;2.15;;;12.80;99.90;;;;;;5008545;28;20506;-71
2023/05/18 08:55:28;;;;;;;7.93;1.70;;;13.20;99.90;;;;;;5006881;28;20563;-78
2023/05/18 08:57:56;;;;;;;7.20;2.50;;;12.40;99.90;;;;;;4992606;28;20426;-77
2023/05/18 09:00:25;;;;;;;7.05;1.50;;;12.70;99.90;;;;;;5000184;28;20772;-76
2023/05/18 09:02:51;;;;;;;6.90;2.33;;;13.10;99.90;;;;;;4989133;28;20455;-76
2023/05/18 09:05:19;;;;;;;6.25;1.75;;;12.90;99.90;;;;;;5006901;28;20543;-76
2023/05/18 09:07:45;;;;;;;7.20;1.85;;;13.00;99.90;;;;;;5006864;28;20559;-76
2023/05/18 09:10:12;;;;;;;5.25;1.98;;;13.10;99.90;;;;;;5006876;28;20486;-76
2023/05/18 09:12:40;;;;;;;9.68;2.63;;;13.10;99.90;;;;;;5007529;28;20401;-76
2023/05/18 09:15:09;;;;;;;7.10;2.10;;;12.80;99.90;;;;;;5005820;28;20436;-77
2023/05/18 09:17:35;;;;;;;8.95;2.80;;;13.20;99.90;;;;;;5005596;28;20469;-76
2023/05/18 09:20:03;;;;;;;6.97;2.73;;;13.10;99.90;;;;;;4986939;28;21289;-76
2023/05/18 09:22:29;;;;;;;9.60;2.30;;;13.20;99.90;;;;;;5006816;28;20428;-76
2023/05/18 09:24:55;;;;;;;8.60;2.30;;;14.00;99.90;;;;;;5006171;28;20455;-76
2023/05/18 09:27:22;;;;;;;6.70;1.95;;;13.50;99.90;;;;;;5005855;28;20784;-76
2023/05/18 09:29:53;;;;;;;7.05;2.35;;;13.10;99.90;;;;;;5006637;28;20467;-79
2023/05/18 09:32:19;;;;;;;5.60;1.75;;;12.60;99.90;;;;;;4990854;28;20430;-78
2023/05/18 09:34:47;;;;;;;6.25;2.40;;;12.50;99.90;;;;;;5007345;28;20424;-79
2023/05/18 09:37:16;;;;;;;6.40;2.20;;;12.40;99.90;;;;;;5020441;28;20412;-78
2023/05/18 09:39:41;;;;;;;7.97;2.30;;;12.80;99.90;;;;;;5010893;28;21177;-79
2023/05/18 09:42:07;;;;;;;5.85;1.90;;;13.00;99.90;;;;;;5013946;28;20482;-80
2023/05/18 09:44:34;;;;;;;6.88;2.60;;;12.90;99.90;;;;;;4988766;28;20429;-81
2023/05/18 09:47:08;;;;;;;7.88;2.10;;;13.50;99.90;;;;;;5009512;28;20530;-80
2023/05/18 09:49:34;;;;;;;9.27;2.10;;;13.60;99.90;;;;;;4993258;28;20418;-80
2023/05/18 09:52:00;;;;;;;5.05;2.38;;;13.90;99.90;;;;;;5019171;28;20501;-77
2023/05/18 09:54:26;;;;;;;6.78;1.95;;;13.10;99.90;;;;;;5017345;28;20494;-80
2023/05/18 09:56:51;;;;;;;8.15;2.30;;;12.80;99.90;;;;;;5013505;28;20780;-80
2023/05/18 09:59:17;;;;;;;8.43;2.05;;;13.60;99.90;;;;;;5007061;28;20464;-81
2023/05/18 10:02:00;;;;;;;7.60;2.58;;;13.30;99.90;;;;;;5004173;28;20446;-80
2023/05/18 10:04:36;;;;;;;5.75;2.33;;;12.90;99.90;;;;;;5016480;28;20435;-79
2023/05/18 10:07:07;;;;;;;7.53;3.30;;;13.20;99.90;;;;;;4990129;28;20555;-78
2023/05/18 10:09:33;;;;;;;5.13;2.20;;;13.40;99.90;;;;;;5005504;28;20511;-80
2023/05/18 10:12:00;;;;;;;7.27;2.30;;;13.50;99.90;;;;;;5004071;28;20560;-77
2023/05/18 10:14:29;;;;;;;5.97;1.80;;;13.70;99.90;;;;;;5005300;28;20799;-79
2023/05/18 10:16:55;;;;;;;8.60;2.40;;;13.20;99.90;;;;;;5006577;28;20515;-79
2023/05/18 10:19:21;;;;;;;7.43;2.00;;;13.30;99.90;;;;;;5006626;28;21065;-79
2023/05/18 10:21:48;;;;;;;7.40;2.30;;;13.20;99.90;;;;;;4989142;28;20536;-75
2023/05/18 10:24:19;;;;;;;8.05;2.55;;;13.00;99.90;;;;;;5006088;28;20420;-80
2023/05/18 10:26:47;;;;;;;8.48;2.00;;;13.20;99.90;;;;;;4982326;28;20426;-78
2023/05/18 10:29:14;;;;;;;7.87;2.33;;;13.00;99.90;;;;;;4991592;28;20474;-78
2023/05/18 10:31:41;;;;;;;5.45;1.88;;;13.10;99.90;;;;;;5006064;28;20433;-77
2023/05/18 10:34:08;;;;;;;8.43;2.97;;;13.00;99.90;;;;;;5007812;28;20429;-79
2023/05/18 10:36:36;;;;;;;7.63;2.58;;;12.90;99.90;;;;;;5008067;28;20504;-80
2023/05/18 10:39:02;;;;;;;7.50;2.70;;;13.40;99.90;;;;;;5006846;28;20447;-78
2023/05/18 10:41:30;;;;;;;6.70;2.65;;;13.50;99.90;;;;;;5006077;28;20433;-77
2023/05/18 10:44:02;;;;;;;8.60;2.75;;;13.20;99.90;;;;;;5006957;28;20421;-78
2023/05/18 10:46:29;;;;;;;8.73;1.77;;;13.20;99.90;;;;;;5006217;28;20424;-78
2023/05/18 10:48:57;;;;;;;8.65;2.33;;;13.80;99.90;;;;;;4991263;28;20440;-79
2023/05/18 10:51:24;;;;;;;7.93;2.25;;;13.50;99.90;;;;;;5010238;28;20508;-78
2023/05/18 10:53:51;;;;;;;6.45;2.47;;;13.60;99.90;;;;;;5013694;28;20431;-78
2023/05/18 10:56:17;;;;;;;16.42;3.47;;;13.30;99.90;;;;;;5012270;28;20463;-78
2023/05/18 10:58:44;;;;;;;8.48;2.78;;;13.60;99.90;;;;;;5014487;28;20420;-80
2023/05/18 11:01:11;;;;;;;10.30;2.67;;;13.50;99.90;;;;;;5012644;28;20492;-81
2023/05/18 11:03:40;;;;;;;10.43;2.33;;;13.50;99.90;;;;;;5012810;28;20428;-77
2023/05/18 11:06:07;;;;;;;7.57;1.95;;;13.90;99.90;;;;;;5016060;28;20420;-77
2023/05/18 11:08:41;;;;;;;6.32;2.25;;;14.00;99.90;;;;;;4985877;28;20491;-76
2023/05/18 11:11:07;;;;;;;7.18;2.10;;;13.50;99.90;;;;;;5016303;28;20535;-77
2023/05/18 11:13:37;;;;;;;8.53;2.63;;;14.10;99.90;;;;;;5013672;28;20971;-78
2023/05/18 11:16:04;;;;;;;6.40;2.78;;;13.80;99.90;;;;;;4977808;28;20777;-79
2023/05/18 11:18:44;;;;;;;5.30;2.65;;;14.20;99.90;;;;;;4999910;28;20423;-79
2023/05/18 11:21:31;;;;;;;6.20;1.92;;;14.30;99.90;;;;;;5010481;28;20437;-78
2023/05/18 11:24:15;;;;;;;6.47;2.03;;;14.20;99.90;;;;;;5010849;28;20424;-76
2023/05/18 11:26:42;;;;;;;7.38;2.70;;;14.70;99.90;;;;;;5011400;28;20464;-80
2023/05/18 11:29:23;;;;;;;6.95;2.40;;;14.40;99.90;;;;;;5010854;28;20520;-77
2023/05/18 11:31:53;;;;;;;5.93;2.45;;;14.50;99.90;;;;;;5009446;28;20429;-77
2023/05/18 11:35:09;;;;;;;6.10;2.40;;;14.10;99.90;;;;;;5010175;28;20453;-78
2023/05/18 11:37:38;;;;;;;7.82;2.50;;;15.00;99.90;;;;;;5009380;28;20432;-78
2023/05/18 11:40:42;;;;;;;11.38;2.97;;;14.40;99.90;;;;;;4992635;28;20444;-79
2023/05/18 11:43:09;;;;;;;9.23;3.20;;;14.20;99.90;;;;;;5010616;28;20484;-79
2023/05/18 11:45:35;;;;;;;8.40;2.40;;;14.00;99.90;;;;;;5007432;28;20432;-76
2023/05/18 11:48:01;;;;;;;10.93;3.45;;;14.10;99.90;;;;;;4990877;28;20447;-81
2023/05/18 11:50:33;;;;;;;8.75;3.05;;;14.20;99.90;;;;;;5009939;28;20454;-80
2023/05/18 11:53:00;;;;;;;11.48;3.38;;;14.30;99.90;;;;;;5009781;28;20428;-79
2023/05/18 11:55:37;;;;;;;8.88;3.38;;;14.30;99.90;;;;;;5009528;28;20822;-76
2023/05/18 11:58:06;;;;;;;6.90;2.38;;;14.30;99.90;;;;;;5010396;28;20412;-80
2023/05/18 12:00:32;;;;;;;6.40;1.90;;;13.70;99.90;;;;;;5011709;28;20439;-80
2023/05/18 12:03:00;;;;;;;7.82;2.72;;;14.00;99.90;;;;;;5017460;28;20969;-80
2023/05/18 12:05:30;;;;;;;6.32;2.88;;;14.40;99.90;;;;;;5008752;28;20420;-76
2023/05/18 12:07:56;;;;;;;8.18;2.60;;;14.40;99.90;;;;;;5010229;28;20433;-80
2023/05/18 12:10:22;;;;;;;7.88;2.75;;;14.20;99.90;;;;;;5009393;28;20473;-82
2023/05/18 12:12:51;;;;;;;8.47;2.37;;;14.20;99.90;;;;;;4988740;28;20511;-82
2023/05/18 12:15:21;;;;;;;8.18;2.15;;;14.70;99.90;;;;;;4987588;28;20443;-78
2023/05/18 12:17:49;;;;;;;6.90;2.30;;;14.50;99.90;;;;;;5006665;28;20795;-81
2023/05/18 12:20:20;;;;;;;8.50;2.60;;;14.50;99.90;;;;;;5007143;28;22332;-82
2023/05/18 12:22:51;;;;;;;10.23;3.10;;;14.70;99.90;;;;;;5009054;28;20491;-80
2023/05/18 12:25:22;;;;;;;7.60;2.38;;;15.10;99.90;;;;;;5007726;28;20425;-79
2023/05/18 12:27:48;;;;;;;5.85;2.10;;;15.40;99.90;;;;;;5007708;28;20420;-80
2023/05/18 12:30:21;;;;;;;7.63;2.60;;;15.10;99.90;;;;;;5012166;28;20437;-82
2023/05/18 12:32:55;;;;;;;7.72;2.80;;;14.50;99.90;;;;;;5028532;28;20899;-80
2023/05/18 12:35:22;;;;;;;9.80;2.80;;;14.60;99.90;;;;;;5010754;28;20425;-83
2023/05/18 12:37:48;;;;;;;8.48;2.22;;;14.40;99.90;;;;;;5008132;28;20440;-82
2023/05/18 12:40:16;;;;;;;8.18;2.63;;;14.30;99.90;;;;;;5008130;28;20485;-82
2023/05/18 12:42:56;;;;;;;7.57;2.10;;;14.70;99.90;;;;;;5008696;28;20502;-76
2023/05/18 12:45:24;;;;;;;9.02;2.00;;;14.10;99.90;;;;;;5006457;28;20621;-77
2023/05/18 12:47:53;;;;;;;7.30;2.00;;;14.30;99.90;;;;;;5010742;28;20443;-76
2023/05/18 12:50:20;;;;;;;10.15;2.75;;;15.00;99.90;;;;;;5009976;28;20780;-83
2023/05/18 12:52:47;;;;;;;7.77;2.60;;;15.00;99.90;;;;;;5013574;28;20429;-83
2023/05/18 12:55:23;;;;;;;11.25;2.45;;;14.70;99.90;;;;;;5007556;28;20463;-81